sensor_id;sensor_type;location;lat;lon;timestamp;P1;durP1;ratioP1;P2;durP2;ratioP2
24585;SDS011;12743;52.262;6.172;2023-05-14T00:00:27;18.10;;;10.27;;
24585;SDS011;12743;52.262;6.172;2023-05-14T00:02:54;16.35;;;10.10;;
24585;SDS011;12743;52.262;6.172;2023-05-14T00:05:21;13.32;;;9.55;;
24585;SDS011;12743;52.262;6.172;2023-05-14T00:07:48;12.35;;;9.57;;
24585;SDS011;12743;52.262;6.172;2023-05-14T00:10:14;16.60;;;10.40;;
24585;SDS011;12743;52.262;6.172;2023-05-14T00:12:42;15.98;;;10.35;;
24585;SDS011;12743;52.262;6.172;2023-05-14T00:15:09;17.65;;;11.18;;
24585;SDS011;12743;52.262;6.172;2023-05-14T00:17:36;16.90;;;10.57;;
24585;SDS011;12743;52.262;6.172;2023-05-14T00:20:03;15.38;;;9.90;;
24585;SDS011;12743;52.262;6.172;2023-05-14T00:22:32;18.30;;;11.03;;
24585;SDS011;12743;52.262;6.172;2023-05-14T00:24:59;15.48;;;9.75;;
24585;SDS011;12743;52.262;6.172;2023-05-14T00:27:27;17.00;;;10.50;;
24585;SDS011;12743;52.262;6.172;2023-05-14T00:29:53;15.07;;;10.57;;
24585;SDS011;12743;52.262;6.172;2023-05-14T00:32:20;13.13;;;9.73;;
24585;SDS011;12743;52.262;6.172;2023-05-14T00:34:47;15.23;;;10.00;;
24585;SDS011;12743;52.262;6.172;2023-05-14T00:37:14;11.88;;;7.93;;
24585;SDS011;12743;52.262;6.172;2023-05-14T00:39:40;15.40;;;10.07;;
24585;SDS011;12743;52.262;6.172;2023-05-14T00:42:07;15.77;;;10.25;;
24585;SDS011;12743;52.262;6.172;2023-05-14T00:44:34;14.43;;;10.10;;
24585;SDS011;12743;52.262;6.172;2023-05-14T00:47:01;15.27;;;10.00;;
24585;SDS011;12743;52.262;6.172;2023-05-14T00:49:28;14.93;;;10.13;;
24585;SDS011;12743;52.262;6.172;2023-05-14T00:51:55;16.42;;;10.23;;
24585;SDS011;12743;52.262;6.172;2023-05-14T00:54:24;16.60;;;10.00;;
24585;SDS011;12743;52.262;6.172;2023-05-14T00:56:51;16.70;;;10.27;;
24585;SDS011;12743;52.262;6.172;2023-05-14T00:59:18;17.63;;;10.63;;
24585;SDS011;12743;52.262;6.172;2023-05-14T01:01:44;14.55;;;9.65;;
24585;SDS011;12743;52.262;6.172;2023-05-14T01:04:11;17.67;;;10.68;;
24585;SDS011;12743;52.262;6.172;2023-05-14T01:06:50;21.10;;;11.50;;
24585;SDS011;12743;52.262;6.172;2023-05-14T01:15:08;16.85;;;10.30;;
24585;SDS011;12743;52.262;6.172;2023-05-14T01:17:38;17.27;;;11.27;;
24585;SDS011;12743;52.262;6.172;2023-05-14T01:20:08;17.45;;;10.50;;
24585;SDS011;12743;52.262;6.172;2023-05-14T01:22:35;17.40;;;10.43;;
24585;SDS011;12743;52.262;6.172;2023-05-14T01:25:01;15.93;;;10.80;;
24585;SDS011;12743;52.262;6.172;2023-05-14T01:27:35;15.45;;;10.55;;
24585;SDS011;12743;52.262;6.172;2023-05-14T01:30:14;17.55;;;10.68;;
24585;SDS011;12743;52.262;6.172;2023-05-14T01:32:47;21.90;;;10.85;;
24585;SDS011;12743;52.262;6.172;2023-05-14T01:35:17;19.88;;;11.23;;
24585;SDS011;12743;52.262;6.172;2023-05-14T01:37:44;15.40;;;10.53;;
24585;SDS011;12743;52.262;6.172;2023-05-14T01:40:12;17.55;;;10.82;;
24585;SDS011;12743;52.262;6.172;2023-05-14T01:42:39;18.38;;;11.18;;
24585;SDS011;12743;52.262;6.172;2023-05-14T01:45:06;17.55;;;10.77;;
24585;SDS011;12743;52.262;6.172;2023-05-14T01:47:33;16.10;;;10.70;;
24585;SDS011;12743;52.262;6.172;2023-05-14T01:50:00;17.53;;;10.90;;
24585;SDS011;12743;52.262;6.172;2023-05-14T01:52:28;17.85;;;11.35;;
24585;SDS011;12743;52.262;6.172;2023-05-14T01:54:55;18.73;;;11.23;;
24585;SDS011;12743;52.262;6.172;2023-05-14T01:57:23;15.55;;;10.90;;
24585;SDS011;12743;52.262;6.172;2023-05-14T01:59:50;19.63;;;12.07;;
24585;SDS011;12743;52.262;6.172;2023-05-14T02:02:16;23.13;;;11.60;;
24585;SDS011;12743;52.262;6.172;2023-05-14T02:04:43;19.35;;;11.48;;
24585;SDS011;12743;52.262;6.172;2023-05-14T02:07:10;22.50;;;11.43;;
24585;SDS011;12743;52.262;6.172;2023-05-14T02:09:36;18.88;;;12.15;;
24585;SDS011;12743;52.262;6.172;2023-05-14T02:12:04;18.42;;;11.75;;
24585;SDS011;12743;52.262;6.172;2023-05-14T02:14:31;18.70;;;11.63;;
24585;SDS011;12743;52.262;6.172;2023-05-14T02:16:58;19.80;;;11.57;;
24585;SDS011;12743;52.262;6.172;2023-05-14T02:19:24;17.77;;;10.60;;
24585;SDS011;12743;52.262;6.172;2023-05-14T02:21:51;19.13;;;10.23;;
24585;SDS011;12743;52.262;6.172;2023-05-14T02:24:18;17.70;;;10.90;;
24585;SDS011;12743;52.262;6.172;2023-05-14T02:26:44;18.27;;;11.93;;
24585;SDS011;12743;52.262;6.172;2023-05-14T02:29:11;17.67;;;10.88;;
24585;SDS011;12743;52.262;6.172;2023-05-14T02:31:38;21.48;;;12.20;;
24585;SDS011;12743;52.262;6.172;2023-05-14T02:34:05;19.05;;;11.05;;
24585;SDS011;12743;52.262;6.172;2023-05-14T02:36:32;18.75;;;11.68;;
24585;SDS011;12743;52.262;6.172;2023-05-14T02:38:58;17.37;;;11.37;;
24585;SDS011;12743;52.262;6.172;2023-05-14T02:41:26;21.83;;;11.88;;
24585;SDS011;12743;52.262;6.172;2023-05-14T02:43:53;19.20;;;11.73;;
24585;SDS011;12743;52.262;6.172;2023-05-14T02:46:20;15.23;;;10.80;;
24585;SDS011;12743;52.262;6.172;2023-05-14T02:48:46;19.55;;;11.48;;
24585;SDS011;12743;52.262;6.172;2023-05-14T02:51:13;17.27;;;10.27;;
24585;SDS011;12743;52.262;6.172;2023-05-14T02:53:40;19.15;;;11.43;;
24585;SDS011;12743;52.262;6.172;2023-05-14T02:56:06;20.45;;;11.60;;
24585;SDS011;12743;52.262;6.172;2023-05-14T02:58:33;16.95;;;10.68;;
24585;SDS011;12743;52.262;6.172;2023-05-14T03:00:59;16.20;;;10.10;;
24585;SDS011;12743;52.262;6.172;2023-05-14T03:03:28;16.83;;;10.20;;
24585;SDS011;12743;52.262;6.172;2023-05-14T03:05:55;19.98;;;11.45;;
24585;SDS011;12743;52.262;6.172;2023-05-14T03:08:22;16.40;;;10.80;;
24585;SDS011;12743;52.262;6.172;2023-05-14T03:10:49;22.83;;;12.00;;
24585;SDS011;12743;52.262;6.172;2023-05-14T03:13:15;17.25;;;10.48;;
24585;SDS011;12743;52.262;6.172;2023-05-14T03:15:45;18.30;;;10.63;;
24585;SDS011;12743;52.262;6.172;2023-05-14T03:18:12;20.15;;;10.80;;
24585;SDS011;12743;52.262;6.172;2023-05-14T03:20:39;18.05;;;11.98;;
24585;SDS011;12743;52.262;6.172;2023-05-14T03:23:06;20.00;;;11.25;;
24585;SDS011;12743;52.262;6.172;2023-05-14T03:25:33;21.17;;;11.07;;
24585;SDS011;12743;52.262;6.172;2023-05-14T03:27:59;20.10;;;10.70;;
24585;SDS011;12743;52.262;6.172;2023-05-14T03:30:26;18.48;;;10.68;;
24585;SDS011;12743;52.262;6.172;2023-05-14T03:32:52;23.00;;;11.43;;
24585;SDS011;12743;52.262;6.172;2023-05-14T03:35:19;14.40;;;9.40;;
24585;SDS011;12743;52.262;6.172;2023-05-14T03:37:46;18.95;;;10.35;;
24585;SDS011;12743;52.262;6.172;2023-05-14T03:40:12;16.93;;;10.67;;
24585;SDS011;12743;52.262;6.172;2023-05-14T03:42:39;17.98;;;10.77;;
24585;SDS011;12743;52.262;6.172;2023-05-14T03:45:08;18.42;;;10.98;;
24585;SDS011;12743;52.262;6.172;2023-05-14T03:47:35;16.05;;;10.05;;
24585;SDS011;12743;52.262;6.172;2023-05-14T03:50:01;14.45;;;9.68;;
24585;SDS011;12743;52.262;6.172;2023-05-14T03:52:28;20.30;;;10.50;;
24585;SDS011;12743;52.262;6.172;2023-05-14T03:54:55;16.27;;;10.38;;
24585;SDS011;12743;52.262;6.172;2023-05-14T03:57:21;15.60;;;10.23;;
24585;SDS011;12743;52.262;6.172;2023-05-14T03:59:48;18.73;;;11.55;;
24585;SDS011;12743;52.262;6.172;2023-05-14T04:02:15;16.02;;;9.70;;
24585;SDS011;12743;52.262;6.172;2023-05-14T04:04:41;22.03;;;10.80;;
24585;SDS011;12743;52.262;6.172;2023-05-14T04:07:08;16.70;;;10.20;;
24585;SDS011;12743;52.262;6.172;2023-05-14T04:09:35;20.35;;;11.25;;
24585;SDS011;12743;52.262;6.172;2023-05-14T04:12:01;18.30;;;10.38;;
24585;SDS011;12743;52.262;6.172;2023-05-14T04:14:28;17.83;;;9.80;;
24585;SDS011;12743;52.262;6.172;2023-05-14T04:16:55;15.93;;;9.63;;
24585;SDS011;12743;52.262;6.172;2023-05-14T04:19:22;21.45;;;10.95;;
24585;SDS011;12743;52.262;6.172;2023-05-14T04:21:48;17.50;;;10.07;;
24585;SDS011;12743;52.262;6.172;2023-05-14T04:24:15;16.17;;;9.13;;
24585;SDS011;12743;52.262;6.172;2023-05-14T04:26:42;17.58;;;10.65;;
24585;SDS011;12743;52.262;6.172;2023-05-14T04:29:08;20.03;;;11.50;;
24585;SDS011;12743;52.262;6.172;2023-05-14T04:31:35;17.30;;;10.15;;
24585;SDS011;12743;52.262;6.172;2023-05-14T04:34:02;16.05;;;9.77;;
24585;SDS011;12743;52.262;6.172;2023-05-14T04:36:28;19.08;;;10.90;;
24585;SDS011;12743;52.262;6.172;2023-05-14T04:38:55;20.17;;;10.23;;
24585;SDS011;12743;52.262;6.172;2023-05-14T04:41:21;23.60;;;11.77;;
24585;SDS011;12743;52.262;6.172;2023-05-14T04:43:48;21.40;;;10.80;;
24585;SDS011;12743;52.262;6.172;2023-05-14T04:46:15;21.08;;;11.20;;
24585;SDS011;12743;52.262;6.172;2023-05-14T04:48:42;18.17;;;11.13;;
24585;SDS011;12743;52.262;6.172;2023-05-14T04:51:08;20.45;;;11.27;;
24585;SDS011;12743;52.262;6.172;2023-05-14T04:53:35;18.20;;;10.90;;
24585;SDS011;12743;52.262;6.172;2023-05-14T04:56:01;18.88;;;10.63;;
24585;SDS011;12743;52.262;6.172;2023-05-14T04:58:28;15.95;;;10.00;;
24585;SDS011;12743;52.262;6.172;2023-05-14T05:00:59;22.13;;;10.93;;
24585;SDS011;12743;52.262;6.172;2023-05-14T05:03:28;18.58;;;9.68;;
24585;SDS011;12743;52.262;6.172;2023-05-14T05:05:54;16.67;;;9.30;;
24585;SDS011;12743;52.262;6.172;2023-05-14T05:08:21;19.90;;;10.02;;
24585;SDS011;12743;52.262;6.172;2023-05-14T05:10:48;18.13;;;10.60;;
24585;SDS011;12743;52.262;6.172;2023-05-14T05:13:14;21.10;;;11.43;;
24585;SDS011;12743;52.262;6.172;2023-05-14T05:15:42;20.20;;;11.40;;
24585;SDS011;12743;52.262;6.172;2023-05-14T05:18:09;18.77;;;10.07;;
24585;SDS011;12743;52.262;6.172;2023-05-14T05:20:35;21.52;;;10.23;;
24585;SDS011;12743;52.262;6.172;2023-05-14T05:23:02;18.92;;;10.38;;
24585;SDS011;12743;52.262;6.172;2023-05-14T05:25:28;23.00;;;11.95;;
24585;SDS011;12743;52.262;6.172;2023-05-14T05:27:56;16.95;;;10.13;;
24585;SDS011;12743;52.262;6.172;2023-05-14T05:30:22;17.23;;;10.13;;
24585;SDS011;12743;52.262;6.172;2023-05-14T05:32:49;15.77;;;9.43;;
24585;SDS011;12743;52.262;6.172;2023-05-14T05:35:16;15.57;;;10.07;;
24585;SDS011;12743;52.262;6.172;2023-05-14T05:37:42;17.13;;;9.98;;
24585;SDS011;12743;52.262;6.172;2023-05-14T05:40:10;25.25;;;10.60;;
24585;SDS011;12743;52.262;6.172;2023-05-14T05:42:39;18.80;;;10.00;;
24585;SDS011;12743;52.262;6.172;2023-05-14T05:45:06;19.08;;;10.85;;
24585;SDS011;12743;52.262;6.172;2023-05-14T05:47:33;17.23;;;9.10;;
24585;SDS011;12743;52.262;6.172;2023-05-14T05:50:01;18.67;;;10.68;;
24585;SDS011;12743;52.262;6.172;2023-05-14T05:52:27;17.30;;;10.55;;
24585;SDS011;12743;52.262;6.172;2023-05-14T05:54:54;17.70;;;10.90;;
24585;SDS011;12743;52.262;6.172;2023-05-14T05:57:21;18.05;;;10.10;;
24585;SDS011;12743;52.262;6.172;2023-05-14T05:59:51;18.67;;;10.40;;
24585;SDS011;12743;52.262;6.172;2023-05-14T06:02:18;17.80;;;9.00;;
24585;SDS011;12743;52.262;6.172;2023-05-14T06:04:45;18.00;;;9.40;;
24585;SDS011;12743;52.262;6.172;2023-05-14T06:07:11;19.40;;;9.93;;
24585;SDS011;12743;52.262;6.172;2023-05-14T06:09:38;16.25;;;9.60;;
24585;SDS011;12743;52.262;6.172;2023-05-14T06:12:05;15.07;;;8.77;;
24585;SDS011;12743;52.262;6.172;2023-05-14T06:14:32;15.23;;;9.35;;
24585;SDS011;12743;52.262;6.172;2023-05-14T06:16:58;18.42;;;10.10;;
24585;SDS011;12743;52.262;6.172;2023-05-14T06:19:26;16.43;;;9.20;;
24585;SDS011;12743;52.262;6.172;2023-05-14T06:21:52;22.33;;;10.48;;
24585;SDS011;12743;52.262;6.172;2023-05-14T06:24:19;16.50;;;9.20;;
24585;SDS011;12743;52.262;6.172;2023-05-14T06:26:46;14.10;;;8.95;;
24585;SDS011;12743;52.262;6.172;2023-05-14T06:29:14;17.98;;;9.57;;
24585;SDS011;12743;52.262;6.172;2023-05-14T06:31:41;20.90;;;10.80;;
24585;SDS011;12743;52.262;6.172;2023-05-14T06:34:07;17.80;;;9.38;;
24585;SDS011;12743;52.262;6.172;2023-05-14T06:36:34;16.30;;;9.93;;
24585;SDS011;12743;52.262;6.172;2023-05-14T06:39:01;16.80;;;9.40;;
24585;SDS011;12743;52.262;6.172;2023-05-14T06:41:28;18.67;;;10.90;;
24585;SDS011;12743;52.262;6.172;2023-05-14T06:43:55;13.60;;;7.53;;
24585;SDS011;12743;52.262;6.172;2023-05-14T06:46:21;15.30;;;9.60;;
24585;SDS011;12743;52.262;6.172;2023-05-14T06:48:48;14.63;;;8.45;;
24585;SDS011;12743;52.262;6.172;2023-05-14T06:51:14;16.77;;;9.23;;
24585;SDS011;12743;52.262;6.172;2023-05-14T06:53:41;17.77;;;10.07;;
24585;SDS011;12743;52.262;6.172;2023-05-14T06:56:07;15.10;;;9.30;;
24585;SDS011;12743;52.262;6.172;2023-05-14T06:58:34;13.95;;;8.32;;
24585;SDS011;12743;52.262;6.172;2023-05-14T07:01:01;15.07;;;9.35;;
24585;SDS011;12743;52.262;6.172;2023-05-14T07:03:28;18.52;;;9.90;;
24585;SDS011;12743;52.262;6.172;2023-05-14T07:05:54;15.10;;;8.15;;
24585;SDS011;12743;52.262;6.172;2023-05-14T07:08:21;16.67;;;9.50;;
24585;SDS011;12743;52.262;6.172;2023-05-14T07:10:47;15.40;;;8.73;;
24585;SDS011;12743;52.262;6.172;2023-05-14T07:13:14;16.30;;;9.90;;
24585;SDS011;12743;52.262;6.172;2023-05-14T07:15:40;15.10;;;8.95;;
24585;SDS011;12743;52.262;6.172;2023-05-14T07:18:07;12.93;;;8.70;;
24585;SDS011;12743;52.262;6.172;2023-05-14T07:20:33;16.27;;;8.47;;
24585;SDS011;12743;52.262;6.172;2023-05-14T07:23:01;14.80;;;9.10;;
24585;SDS011;12743;52.262;6.172;2023-05-14T07:25:27;14.13;;;8.45;;
24585;SDS011;12743;52.262;6.172;2023-05-14T07:27:54;13.88;;;8.52;;
24585;SDS011;12743;52.262;6.172;2023-05-14T07:30:21;15.88;;;10.30;;
24585;SDS011;12743;52.262;6.172;2023-05-14T07:32:48;13.37;;;8.73;;
24585;SDS011;12743;52.262;6.172;2023-05-14T07:35:14;14.60;;;8.95;;
24585;SDS011;12743;52.262;6.172;2023-05-14T07:37:41;17.50;;;9.27;;
24585;SDS011;12743;52.262;6.172;2023-05-14T07:40:08;14.98;;;8.65;;
24585;SDS011;12743;52.262;6.172;2023-05-14T07:42:35;14.85;;;8.93;;
24585;SDS011;12743;52.262;6.172;2023-05-14T07:45:03;14.00;;;8.60;;
24585;SDS011;12743;52.262;6.172;2023-05-14T07:47:30;14.77;;;8.07;;
24585;SDS011;12743;52.262;6.172;2023-05-14T07:49:57;13.75;;;7.80;;
24585;SDS011;12743;52.262;6.172;2023-05-14T07:52:24;14.18;;;8.15;;
24585;SDS011;12743;52.262;6.172;2023-05-14T07:54:51;13.70;;;8.02;;
24585;SDS011;12743;52.262;6.172;2023-05-14T07:57:18;12.57;;;8.20;;
24585;SDS011;12743;52.262;6.172;2023-05-14T07:59:46;12.90;;;8.43;;
24585;SDS011;12743;52.262;6.172;2023-05-14T08:02:12;13.50;;;8.13;;
24585;SDS011;12743;52.262;6.172;2023-05-14T08:04:41;11.65;;;7.50;;
24585;SDS011;12743;52.262;6.172;2023-05-14T08:07:08;13.00;;;8.32;;
24585;SDS011;12743;52.262;6.172;2023-05-14T08:09:34;13.93;;;7.50;;
24585;SDS011;12743;52.262;6.172;2023-05-14T08:12:02;13.32;;;7.60;;
24585;SDS011;12743;52.262;6.172;2023-05-14T08:14:29;16.13;;;9.07;;
24585;SDS011;12743;52.262;6.172;2023-05-14T08:16:55;13.85;;;8.70;;
24585;SDS011;12743;52.262;6.172;2023-05-14T08:19:22;14.75;;;8.18;;
24585;SDS011;12743;52.262;6.172;2023-05-14T08:21:49;13.13;;;7.73;;
24585;SDS011;12743;52.262;6.172;2023-05-14T08:24:16;11.38;;;7.47;;
24585;SDS011;12743;52.262;6.172;2023-05-14T08:26:44;15.90;;;8.30;;
24585;SDS011;12743;52.262;6.172;2023-05-14T08:29:10;12.38;;;7.82;;
24585;SDS011;12743;52.262;6.172;2023-05-14T08:31:40;17.08;;;8.98;;
24585;SDS011;12743;52.262;6.172;2023-05-14T08:34:07;14.87;;;8.37;;
24585;SDS011;12743;52.262;6.172;2023-05-14T08:36:33;12.63;;;7.15;;
24585;SDS011;12743;52.262;6.172;2023-05-14T08:39:00;12.23;;;6.78;;
24585;SDS011;12743;52.262;6.172;2023-05-14T08:41:27;11.38;;;7.43;;
24585;SDS011;12743;52.262;6.172;2023-05-14T08:46:39;13.80;;;7.50;;
24585;SDS011;12743;52.262;6.172;2023-05-14T08:52:06;13.82;;;8.23;;
24585;SDS011;12743;52.262;6.172;2023-05-14T08:54:34;13.23;;;7.75;;
24585;SDS011;12743;52.262;6.172;2023-05-14T08:57:04;12.45;;;8.95;;
24585;SDS011;12743;52.262;6.172;2023-05-14T08:59:31;15.00;;;8.23;;
24585;SDS011;12743;52.262;6.172;2023-05-14T09:01:59;13.63;;;8.85;;
24585;SDS011;12743;52.262;6.172;2023-05-14T09:04:27;16.33;;;7.57;;
24585;SDS011;12743;52.262;6.172;2023-05-14T09:06:55;14.80;;;8.82;;
24585;SDS011;12743;52.262;6.172;2023-05-14T09:09:21;12.57;;;7.90;;
24585;SDS011;12743;52.262;6.172;2023-05-14T09:11:49;11.03;;;7.40;;
24585;SDS011;12743;52.262;6.172;2023-05-14T09:14:17;14.32;;;8.30;;
24585;SDS011;12743;52.262;6.172;2023-05-14T09:16:45;11.52;;;7.88;;
24585;SDS011;12743;52.262;6.172;2023-05-14T09:19:14;10.82;;;7.60;;
24585;SDS011;12743;52.262;6.172;2023-05-14T09:21:44;10.15;;;7.05;;
24585;SDS011;12743;52.262;6.172;2023-05-14T09:24:18;14.10;;;7.83;;
24585;SDS011;12743;52.262;6.172;2023-05-14T09:26:48;10.77;;;7.03;;
24585;SDS011;12743;52.262;6.172;2023-05-14T09:29:16;11.45;;;7.88;;
24585;SDS011;12743;52.262;6.172;2023-05-14T09:31:43;13.75;;;8.80;;
24585;SDS011;12743;52.262;6.172;2023-05-14T09:34:10;9.48;;;6.07;;
24585;SDS011;12743;52.262;6.172;2023-05-14T09:36:37;11.37;;;7.07;;
24585;SDS011;12743;52.262;6.172;2023-05-14T09:39:03;10.65;;;7.60;;
24585;SDS011;12743;52.262;6.172;2023-05-14T09:41:30;9.70;;;7.63;;
24585;SDS011;12743;52.262;6.172;2023-05-14T09:43:56;13.05;;;8.38;;
24585;SDS011;12743;52.262;6.172;2023-05-14T09:46:23;11.07;;;7.40;;
24585;SDS011;12743;52.262;6.172;2023-05-14T09:48:55;11.17;;;6.60;;
24585;SDS011;12743;52.262;6.172;2023-05-14T09:51:22;13.98;;;7.38;;
24585;SDS011;12743;52.262;6.172;2023-05-14T09:53:49;11.52;;;7.82;;
24585;SDS011;12743;52.262;6.172;2023-05-14T09:56:17;12.02;;;8.15;;
24585;SDS011;12743;52.262;6.172;2023-05-14T09:58:44;13.52;;;7.35;;
24585;SDS011;12743;52.262;6.172;2023-05-14T10:01:11;8.37;;;5.63;;
24585;SDS011;12743;52.262;6.172;2023-05-14T10:03:39;9.05;;;5.05;;
24585;SDS011;12743;52.262;6.172;2023-05-14T10:06:05;7.03;;;4.78;;
24585;SDS011;12743;52.262;6.172;2023-05-14T10:08:34;9.40;;;6.07;;
24585;SDS011;12743;52.262;6.172;2023-05-14T10:11:02;9.07;;;5.65;;
24585;SDS011;12743;52.262;6.172;2023-05-14T10:13:36;11.73;;;5.47;;
24585;SDS011;12743;52.262;6.172;2023-05-14T10:16:10;8.60;;;5.00;;
24585;SDS011;12743;52.262;6.172;2023-05-14T10:18:40;8.40;;;4.93;;
24585;SDS011;12743;52.262;6.172;2023-05-14T10:21:11;7.68;;;5.18;;
24585;SDS011;12743;52.262;6.172;2023-05-14T10:23:40;8.07;;;4.28;;
24585;SDS011;12743;52.262;6.172;2023-05-14T10:26:07;8.33;;;4.40;;
24585;SDS011;12743;52.262;6.172;2023-05-14T10:28:35;5.85;;;3.95;;
24585;SDS011;12743;52.262;6.172;2023-05-14T10:31:02;8.60;;;5.10;;
24585;SDS011;12743;52.262;6.172;2023-05-14T10:33:28;9.32;;;4.80;;
24585;SDS011;12743;52.262;6.172;2023-05-14T10:36:07;10.90;;;4.55;;
24585;SDS011;12743;52.262;6.172;2023-05-14T10:38:36;8.70;;;4.90;;
24585;SDS011;12743;52.262;6.172;2023-05-14T10:41:04;8.77;;;4.97;;
24585;SDS011;12743;52.262;6.172;2023-05-14T10:43:36;8.07;;;4.45;;
24585;SDS011;12743;52.262;6.172;2023-05-14T10:46:04;9.07;;;4.38;;
24585;SDS011;12743;52.262;6.172;2023-05-14T10:48:32;11.02;;;5.28;;
24585;SDS011;12743;52.262;6.172;2023-05-14T10:51:00;10.37;;;5.00;;
24585;SDS011;12743;52.262;6.172;2023-05-14T10:53:32;10.25;;;5.03;;
24585;SDS011;12743;52.262;6.172;2023-05-14T10:58:35;8.48;;;5.10;;
24585;SDS011;12743;52.262;6.172;2023-05-14T11:01:02;9.25;;;5.30;;
24585;SDS011;12743;52.262;6.172;2023-05-14T11:03:32;9.20;;;5.10;;
24585;SDS011;12743;52.262;6.172;2023-05-14T11:06:04;8.60;;;4.85;;
24585;SDS011;12743;52.262;6.172;2023-05-14T11:08:32;8.15;;;4.53;;
24585;SDS011;12743;52.262;6.172;2023-05-14T11:10:58;8.52;;;4.35;;
24585;SDS011;12743;52.262;6.172;2023-05-14T11:13:26;10.63;;;4.22;;
24585;SDS011;12743;52.262;6.172;2023-05-14T11:15:53;10.77;;;5.20;;
24585;SDS011;12743;52.262;6.172;2023-05-14T11:18:26;6.40;;;4.07;;
24585;SDS011;12743;52.262;6.172;2023-05-14T11:20:59;8.93;;;4.40;;
24585;SDS011;12743;52.262;6.172;2023-05-14T11:23:27;9.45;;;5.15;;
24585;SDS011;12743;52.262;6.172;2023-05-14T11:25:54;7.45;;;4.13;;
24585;SDS011;12743;52.262;6.172;2023-05-14T11:28:22;8.43;;;4.73;;
24585;SDS011;12743;52.262;6.172;2023-05-14T11:30:51;9.57;;;4.90;;
24585;SDS011;12743;52.262;6.172;2023-05-14T11:33:19;12.25;;;4.95;;
24585;SDS011;12743;52.262;6.172;2023-05-14T11:35:46;8.50;;;5.20;;
24585;SDS011;12743;52.262;6.172;2023-05-14T11:38:14;8.68;;;5.22;;
24585;SDS011;12743;52.262;6.172;2023-05-14T11:40:42;8.20;;;4.60;;
24585;SDS011;12743;52.262;6.172;2023-05-14T11:43:08;6.63;;;4.60;;
24585;SDS011;12743;52.262;6.172;2023-05-14T11:45:38;8.20;;;5.00;;
24585;SDS011;12743;52.262;6.172;2023-05-14T11:48:10;9.60;;;4.80;;
24585;SDS011;12743;52.262;6.172;2023-05-14T11:50:43;9.88;;;5.05;;
24585;SDS011;12743;52.262;6.172;2023-05-14T11:53:10;7.57;;;4.80;;
24585;SDS011;12743;52.262;6.172;2023-05-14T11:55:42;8.15;;;4.05;;
24585;SDS011;12743;52.262;6.172;2023-05-14T11:58:08;9.43;;;4.97;;
24585;SDS011;12743;52.262;6.172;2023-05-14T12:00:36;7.68;;;4.18;;
24585;SDS011;12743;52.262;6.172;2023-05-14T12:03:03;8.13;;;4.97;;
24585;SDS011;12743;52.262;6.172;2023-05-14T12:05:29;7.60;;;3.63;;
24585;SDS011;12743;52.262;6.172;2023-05-14T12:07:56;11.27;;;4.18;;
24585;SDS011;12743;52.262;6.172;2023-05-14T12:10:23;9.13;;;5.25;;
24585;SDS011;12743;52.262;6.172;2023-05-14T12:12:50;8.15;;;4.28;;
24585;SDS011;12743;52.262;6.172;2023-05-14T12:15:16;8.88;;;4.63;;
24585;SDS011;12743;52.262;6.172;2023-05-14T12:17:48;7.30;;;4.47;;
24585;SDS011;12743;52.262;6.172;2023-05-14T12:20:16;7.18;;;4.25;;
24585;SDS011;12743;52.262;6.172;2023-05-14T12:22:42;7.10;;;4.00;;
24585;SDS011;12743;52.262;6.172;2023-05-14T12:25:09;10.05;;;4.57;;
24585;SDS011;12743;52.262;6.172;2023-05-14T12:27:38;11.60;;;4.22;;
24585;SDS011;12743;52.262;6.172;2023-05-14T12:30:05;7.83;;;4.40;;
24585;SDS011;12743;52.262;6.172;2023-05-14T12:32:36;9.18;;;4.63;;
24585;SDS011;12743;52.262;6.172;2023-05-14T12:35:09;7.82;;;4.70;;
24585;SDS011;12743;52.262;6.172;2023-05-14T12:37:38;8.30;;;4.55;;
24585;SDS011;12743;52.262;6.172;2023-05-14T12:40:05;7.82;;;4.03;;
24585;SDS011;12743;52.262;6.172;2023-05-14T12:42:35;6.77;;;4.43;;
24585;SDS011;12743;52.262;6.172;2023-05-14T12:45:01;7.85;;;4.13;;
24585;SDS011;12743;52.262;6.172;2023-05-14T12:47:32;7.25;;;4.22;;
24585;SDS011;12743;52.262;6.172;2023-05-14T12:49:58;8.90;;;4.30;;
24585;SDS011;12743;52.262;6.172;2023-05-14T12:52:26;8.02;;;3.20;;
24585;SDS011;12743;52.262;6.172;2023-05-14T12:55:03;8.37;;;3.40;;
24585;SDS011;12743;52.262;6.172;2023-05-14T12:57:30;9.13;;;4.43;;
24585;SDS011;12743;52.262;6.172;2023-05-14T12:59:57;7.70;;;4.30;;
24585;SDS011;12743;52.262;6.172;2023-05-14T13:02:24;6.15;;;3.28;;
24585;SDS011;12743;52.262;6.172;2023-05-14T13:04:50;7.78;;;3.20;;
24585;SDS011;12743;52.262;6.172;2023-05-14T13:07:17;6.60;;;2.70;;
24585;SDS011;12743;52.262;6.172;2023-05-14T13:09:43;5.07;;;2.55;;
24585;SDS011;12743;52.262;6.172;2023-05-14T13:12:10;6.25;;;2.70;;
24585;SDS011;12743;52.262;6.172;2023-05-14T13:14:36;5.60;;;2.63;;
24585;SDS011;12743;52.262;6.172;2023-05-14T13:17:03;7.22;;;3.10;;
24585;SDS011;12743;52.262;6.172;2023-05-14T13:19:30;9.70;;;2.93;;
24585;SDS011;12743;52.262;6.172;2023-05-14T13:21:57;6.82;;;2.65;;
24585;SDS011;12743;52.262;6.172;2023-05-14T13:24:24;4.40;;;2.58;;
24585;SDS011;12743;52.262;6.172;2023-05-14T13:26:50;6.28;;;2.58;;
24585;SDS011;12743;52.262;6.172;2023-05-14T13:29:17;4.78;;;2.40;;
24585;SDS011;12743;52.262;6.172;2023-05-14T13:31:44;4.40;;;2.40;;
24585;SDS011;12743;52.262;6.172;2023-05-14T13:34:10;5.25;;;2.70;;
24585;SDS011;12743;52.262;6.172;2023-05-14T13:36:38;4.50;;;2.60;;
24585;SDS011;12743;52.262;6.172;2023-05-14T13:39:05;5.63;;;2.50;;
24585;SDS011;12743;52.262;6.172;2023-05-14T13:41:32;5.65;;;2.50;;
24585;SDS011;12743;52.262;6.172;2023-05-14T13:44:03;5.13;;;2.50;;
24585;SDS011;12743;52.262;6.172;2023-05-14T13:46:30;4.68;;;2.50;;
24585;SDS011;12743;52.262;6.172;2023-05-14T13:48:56;4.47;;;2.15;;
24585;SDS011;12743;52.262;6.172;2023-05-14T13:51:23;6.43;;;2.55;;
24585;SDS011;12743;52.262;6.172;2023-05-14T13:53:50;4.43;;;2.10;;
24585;SDS011;12743;52.262;6.172;2023-05-14T13:56:16;5.40;;;2.00;;
24585;SDS011;12743;52.262;6.172;2023-05-14T13:58:43;4.75;;;2.20;;
24585;SDS011;12743;52.262;6.172;2023-05-14T14:01:09;7.72;;;2.20;;
24585;SDS011;12743;52.262;6.172;2023-05-14T14:03:36;6.30;;;2.55;;
24585;SDS011;12743;52.262;6.172;2023-05-14T14:06:03;5.95;;;2.42;;
24585;SDS011;12743;52.262;6.172;2023-05-14T14:08:29;6.00;;;2.60;;
24585;SDS011;12743;52.262;6.172;2023-05-14T14:10:56;6.20;;;2.33;;
24585;SDS011;12743;52.262;6.172;2023-05-14T14:13:22;5.28;;;2.20;;
24585;SDS011;12743;52.262;6.172;2023-05-14T14:15:49;4.35;;;2.20;;
24585;SDS011;12743;52.262;6.172;2023-05-14T14:18:16;6.57;;;2.65;;
24585;SDS011;12743;52.262;6.172;2023-05-14T14:20:43;5.53;;;2.13;;
24585;SDS011;12743;52.262;6.172;2023-05-14T14:23:09;6.22;;;2.45;;
24585;SDS011;12743;52.262;6.172;2023-05-14T14:25:36;7.28;;;2.50;;
24585;SDS011;12743;52.262;6.172;2023-05-14T14:28:02;6.93;;;2.40;;
24585;SDS011;12743;52.262;6.172;2023-05-14T14:30:29;5.95;;;2.40;;
24585;SDS011;12743;52.262;6.172;2023-05-14T14:32:57;8.10;;;2.50;;
24585;SDS011;12743;52.262;6.172;2023-05-14T14:35:26;9.02;;;2.80;;
24585;SDS011;12743;52.262;6.172;2023-05-14T14:37:53;6.88;;;2.50;;
24585;SDS011;12743;52.262;6.172;2023-05-14T14:40:20;6.95;;;2.90;;
24585;SDS011;12743;52.262;6.172;2023-05-14T14:42:48;7.00;;;2.45;;
24585;SDS011;12743;52.262;6.172;2023-05-14T14:45:15;9.87;;;2.40;;
24585;SDS011;12743;52.262;6.172;2023-05-14T14:47:43;10.40;;;2.90;;